sensor_id;sensor_type;location;lat;lon;timestamp;temperature;humidity
11284;DHT22;5698;47.332;11.180;2022-10-16T00:01:05;9.40;99.90
11284;DHT22;5698;47.332;11.180;2022-10-16T00:03:33;9.60;99.90
11284;DHT22;5698;47.332;11.180;2022-10-16T00:06:01;9.60;99.90
11284;DHT22;5698;47.332;11.180;2022-10-16T00:08:29;9.70;99.90
11284;DHT22;5698;47.332;11.180;2022-10-16T00:11:00;9.60;99.90
11284;DHT22;5698;47.332;11.180;2022-10-16T00:13:28;9.60;99.90
11284;DHT22;5698;47.332;11.180;2022-10-16T00:15:56;9.50;99.90
11284;DHT22;5698;47.332;11.180;2022-10-16T00:18:24;9.40;99.90
11284;DHT22;5698;47.332;11.180;2022-10-16T00:20:52;9.40;99.90
11284;DHT22;5698;47.332;11.180;2022-10-16T00:23:19;9.40;99.90
11284;DHT22;5698;47.332;11.180;2022-10-16T00:25:56;9.40;99.90
11284;DHT22;5698;47.332;11.180;2022-10-16T00:28:23;9.50;99.90
11284;DHT22;5698;47.332;11.180;2022-10-16T00:30:50;9.50;99.90
11284;DHT22;5698;47.332;11.180;2022-10-16T00:33:17;9.40;99.90
11284;DHT22;5698;47.332;11.180;2022-10-16T00:35:44;9.40;99.90
11284;DHT22;5698;47.332;11.180;2022-10-16T00:38:11;9.60;99.90
11284;DHT22;5698;47.332;11.180;2022-10-16T00:40:38;9.60;99.90
11284;DHT22;5698;47.332;11.180;2022-10-16T00:43:12;9.70;99.90
11284;DHT22;5698;47.332;11.180;2022-10-16T00:45:41;9.70;99.90
11284;DHT22;5698;47.332;11.180;2022-10-16T00:48:11;9.80;99.90
11284;DHT22;5698;47.332;11.180;2022-10-16T00:50:40;9.80;99.90
11284;DHT22;5698;47.332;11.180;2022-10-16T00:53:10;9.70;99.90
11284;DHT22;5698;47.332;11.180;2022-10-16T00:55:38;9.70;99.90
11284;DHT22;5698;47.332;11.180;2022-10-16T00:58:05;9.70;99.90
11284;DHT22;5698;47.332;11.180;2022-10-16T01:00:34;9.60;99.90
11284;DHT22;5698;47.332;11.180;2022-10-16T01:03:02;9.60;99.90
11284;DHT22;5698;47.332;11.180;2022-10-16T01:05:33;9.60;99.90
11284;DHT22;5698;47.332;11.180;2022-10-16T01:08:08;9.60;99.90
11284;DHT22;5698;47.332;11.180;2022-10-16T01:10:41;9.60;99.90
11284;DHT22;5698;47.332;11.180;2022-10-16T01:13:14;9.60;99.90
11284;DHT22;5698;47.332;11.180;2022-10-16T01:15:48;9.60;99.90
11284;DHT22;5698;47.332;11.180;2022-10-16T01:18:20;9.70;99.90
11284;DHT22;5698;47.332;11.180;2022-10-16T01:20:51;9.80;99.90
11284;DHT22;5698;47.332;11.180;2022-10-16T01:23:31;9.80;99.90
11284;DHT22;5698;47.332;11.180;2022-10-16T01:26:14;9.80;99.90
11284;DHT22;5698;47.332;11.180;2022-10-16T01:28:51;9.70;99.90
11284;DHT22;5698;47.332;11.180;2022-10-16T01:31:22;9.60;99.90
11284;DHT22;5698;47.332;11.180;2022-10-16T01:33:55;9.60;99.90
11284;DHT22;5698;47.332;11.180;2022-10-16T01:36:26;9.70;99.90
11284;DHT22;5698;47.332;11.180;2022-10-16T01:38:57;9.80;99.90
11284;DHT22;5698;47.332;11.180;2022-10-16T01:41:30;9.80;99.90
11284;DHT22;5698;47.332;11.180;2022-10-16T01:44:04;9.80;99.90
11284;DHT22;5698;47.332;11.180;2022-10-16T01:46:35;9.80;99.90
11284;DHT22;5698;47.332;11.180;2022-10-16T01:49:03;9.80;99.90
11284;DHT22;5698;47.332;11.180;2022-10-16T01:51:30;9.80;99.90
11284;DHT22;5698;47.332;11.180;2022-10-16T01:54:00;9.80;99.90
11284;DHT22;5698;47.332;11.180;2022-10-16T01:56:28;9.80;99.90
11284;DHT22;5698;47.332;11.180;2022-10-16T01:58:57;9.80;99.90
11284;DHT22;5698;47.332;11.180;2022-10-16T02:01:30;9.90;99.90
11284;DHT22;5698;47.332;11.180;2022-10-16T02:04:01;9.90;99.90
11284;DHT22;5698;47.332;11.180;2022-10-16T02:06:30;9.90;99.90
11284;DHT22;5698;47.332;11.180;2022-10-16T02:08:57;9.90;99.90
11284;DHT22;5698;47.332;11.180;2022-10-16T02:11:25;10.00;99.90
11284;DHT22;5698;47.332;11.180;2022-10-16T02:13:56;10.10;99.90
11284;DHT22;5698;47.332;11.180;2022-10-16T02:16:33;10.10;99.90
11284;DHT22;5698;47.332;11.180;2022-10-16T02:19:00;10.10;99.90
11284;DHT22;5698;47.332;11.180;2022-10-16T02:21:30;10.10;99.90
11284;DHT22;5698;47.332;11.180;2022-10-16T02:24:03;10.10;99.90
11284;DHT22;5698;47.332;11.180;2022-10-16T02:26:37;10.10;99.90
11284;DHT22;5698;47.332;11.180;2022-10-16T02:29:10;10.10;99.90
11284;DHT22;5698;47.332;11.180;2022-10-16T02:31:46;10.10;99.90
11284;DHT22;5698;47.332;11.180;2022-10-16T02:34:15;10.10;99.90
11284;DHT22;5698;47.332;11.180;2022-10-16T02:36:44;10.10;99.90
11284;DHT22;5698;47.332;11.180;2022-10-16T02:39:14;9.90;99.90
11284;DHT22;5698;47.332;11.180;2022-10-16T02:41:41;9.80;99.90
11284;DHT22;5698;47.332;11.180;2022-10-16T02:44:09;9.70;99.90
11284;DHT22;5698;47.332;11.180;2022-10-16T02:46:36;9.70;99.90
11284;DHT22;5698;47.332;11.180;2022-10-16T02:49:04;9.70;99.90
11284;DHT22;5698;47.332;11.180;2022-10-16T02:51:31;9.80;99.90
11284;DHT22;5698;47.332;11.180;2022-10-16T02:53:58;9.90;99.90
11284;DHT22;5698;47.332;11.180;2022-10-16T02:56:25;9.90;99.90
11284;DHT22;5698;47.332;11.180;2022-10-16T02:58:52;9.90;99.90
11284;DHT22;5698;47.332;11.180;2022-10-16T03:01:19;9.90;99.90
11284;DHT22;5698;47.332;11.180;2022-10-16T03:03:46;9.90;99.90
11284;DHT22;5698;47.332;11.180;2022-10-16T03:06:14;10.00;99.90
11284;DHT22;5698;47.332;11.180;2022-10-16T03:08:41;9.90;99.90
11284;DHT22;5698;47.332;11.180;2022-10-16T03:11:09;9.90;99.90
11284;DHT22;5698;47.332;11.180;2022-10-16T03:13:36;9.90;99.90
11284;DHT22;5698;47.332;11.180;2022-10-16T03:16:03;10.00;99.90
11284;DHT22;5698;47.332;11.180;2022-10-16T03:18:30;10.00;99.90
11284;DHT22;5698;47.332;11.180;2022-10-16T03:20:57;10.00;99.90
11284;DHT22;5698;47.332;11.180;2022-10-16T03:23:25;10.00;99.90
11284;DHT22;5698;47.332;11.180;2022-10-16T03:25:52;10.00;99.90
11284;DHT22;5698;47.332;11.180;2022-10-16T03:28:19;9.90;99.90
11284;DHT22;5698;47.332;11.180;2022-10-16T03:30:46;9.90;99.90
11284;DHT22;5698;47.332;11.180;2022-10-16T03:33:13;10.00;99.90
11284;DHT22;5698;47.332;11.180;2022-10-16T03:35:40;9.90;99.90
11284;DHT22;5698;47.332;11.180;2022-10-16T03:38:07;10.00;99.90
11284;DHT22;5698;47.332;11.180;2022-10-16T03:40:36;10.00;99.90
11284;DHT22;5698;47.332;11.180;2022-10-16T03:43:02;9.90;99.90
11284;DHT22;5698;47.332;11.180;2022-10-16T03:45:29;10.00;99.90
11284;DHT22;5698;47.332;11.180;2022-10-16T03:47:56;10.00;99.90
11284;DHT22;5698;47.332;11.180;2022-10-16T03:50:23;10.00;99.90
11284;DHT22;5698;47.332;11.180;2022-10-16T03:52:50;9.90;99.90
11284;DHT22;5698;47.332;11.180;2022-10-16T03:55:17;9.90;99.90
11284;DHT22;5698;47.332;11.180;2022-10-16T03:57:46;9.90;99.90
11284;DHT22;5698;47.332;11.180;2022-10-16T04:00:13;9.80;99.90
11284;DHT22;5698;47.332;11.180;2022-10-16T04:02:40;9.80;99.90
11284;DHT22;5698;47.332;11.180;2022-10-16T04:05:07;9.90;99.90
11284;DHT22;5698;47.332;11.180;2022-10-16T04:07:34;9.90;99.90
11284;DHT22;5698;47.332;11.180;2022-10-16T04:10:01;10.00;99.90
11284;DHT22;5698;47.332;11.180;2022-10-16T04:12:28;10.10;99.90
11284;DHT22;5698;47.332;11.180;2022-10-16T04:14:57;10.00;99.90
11284;DHT22;5698;47.332;11.180;2022-10-16T04:17:24;10.10;99.90
11284;DHT22;5698;47.332;11.180;2022-10-16T04:19:51;10.00;99.90
11284;DHT22;5698;47.332;11.180;2022-10-16T04:22:18;10.00;99.90
11284;DHT22;5698;47.332;11.180;2022-10-16T04:24:45;10.00;99.90
11284;DHT22;5698;47.332;11.180;2022-10-16T04:27:12;10.00;99.90
11284;DHT22;5698;47.332;11.180;2022-10-16T04:29:39;10.00;99.90
11284;DHT22;5698;47.332;11.180;2022-10-16T04:32:08;10.00;99.90
11284;DHT22;5698;47.332;11.180;2022-10-16T04:34:35;10.00;99.90
11284;DHT22;5698;47.332;11.180;2022-10-16T04:37:03;10.10;99.90
11284;DHT22;5698;47.332;11.180;2022-10-16T04:39:30;10.10;99.90
11284;DHT22;5698;47.332;11.180;2022-10-16T04:41:57;10.10;99.90
11284;DHT22;5698;47.332;11.180;2022-10-16T04:44:24;10.10;99.90
11284;DHT22;5698;47.332;11.180;2022-10-16T04:46:51;10.10;99.90
11284;DHT22;5698;47.332;11.180;2022-10-16T04:49:20;10.10;99.90
11284;DHT22;5698;47.332;11.180;2022-10-16T04:51:47;9.90;99.90
11284;DHT22;5698;47.332;11.180;2022-10-16T04:54:14;9.90;99.90
11284;DHT22;5698;47.332;11.180;2022-10-16T04:56:41;9.90;99.90
11284;DHT22;5698;47.332;11.180;2022-10-16T04:59:13;9.80;99.90
11284;DHT22;5698;47.332;11.180;2022-10-16T05:01:40;9.90;99.90
11284;DHT22;5698;47.332;11.180;2022-10-16T05:04:07;9.90;99.90
11284;DHT22;5698;47.332;11.180;2022-10-16T05:06:36;9.80;99.90
11284;DHT22;5698;47.332;11.180;2022-10-16T05:09:04;9.70;99.90
11284;DHT22;5698;47.332;11.180;2022-10-16T05:11:31;9.70;99.90
11284;DHT22;5698;47.332;11.180;2022-10-16T05:13:58;9.70;99.90
11284;DHT22;5698;47.332;11.180;2022-10-16T05:16:25;9.60;99.90
11284;DHT22;5698;47.332;11.180;2022-10-16T05:18:52;9.60;99.90
11284;DHT22;5698;47.332;11.180;2022-10-16T05:21:19;9.50;99.90
11284;DHT22;5698;47.332;11.180;2022-10-16T05:23:48;9.50;99.90
11284;DHT22;5698;47.332;11.180;2022-10-16T05:26:15;9.60;99.90
11284;DHT22;5698;47.332;11.180;2022-10-16T05:28:42;9.60;99.90
11284;DHT22;5698;47.332;11.180;2022-10-16T05:31:09;9.60;99.90
11284;DHT22;5698;47.332;11.180;2022-10-16T05:33:37;9.60;99.90
11284;DHT22;5698;47.332;11.180;2022-10-16T05:36:06;9.50;99.90
11284;DHT22;5698;47.332;11.180;2022-10-16T05:38:33;9.30;99.90
11284;DHT22;5698;47.332;11.180;2022-10-16T05:41:02;9.30;99.90
11284;DHT22;5698;47.332;11.180;2022-10-16T05:43:30;9.30;99.90
11284;DHT22;5698;47.332;11.180;2022-10-16T05:45:58;9.20;99.90
11284;DHT22;5698;47.332;11.180;2022-10-16T05:48:26;9.10;99.90
11284;DHT22;5698;47.332;11.180;2022-10-16T05:50:57;9.10;99.90
11284;DHT22;5698;47.332;11.180;2022-10-16T05:53:24;9.20;99.90
11284;DHT22;5698;47.332;11.180;2022-10-16T05:55:52;9.30;99.90
11284;DHT22;5698;47.332;11.180;2022-10-16T05:58:22;9.30;99.90
11284;DHT22;5698;47.332;11.180;2022-10-16T06:00:56;9.30;99.90
11284;DHT22;5698;47.332;11.180;2022-10-16T06:03:23;9.40;99.90
11284;DHT22;5698;47.332;11.180;2022-10-16T06:05:50;9.30;99.90
11284;DHT22;5698;47.332;11.180;2022-10-16T06:08:18;9.20;99.90
11284;DHT22;5698;47.332;11.180;2022-10-16T06:10:45;9.20;99.90
11284;DHT22;5698;47.332;11.180;2022-10-16T06:13:13;9.20;99.90
11284;DHT22;5698;47.332;11.180;2022-10-16T06:15:42;9.30;99.90
11284;DHT22;5698;47.332;11.180;2022-10-16T06:18:09;9.30;99.90
11284;DHT22;5698;47.332;11.180;2022-10-16T06:20:36;9.20;99.90
11284;DHT22;5698;47.332;11.180;2022-10-16T06:23:03;9.20;99.90
11284;DHT22;5698;47.332;11.180;2022-10-16T06:25:30;9.30;99.90
11284;DHT22;5698;47.332;11.180;2022-10-16T06:27:59;9.30;99.90
11284;DHT22;5698;47.332;11.180;2022-10-16T06:30:26;9.30;99.90
11284;DHT22;5698;47.332;11.180;2022-10-16T06:32:55;9.40;99.90
11284;DHT22;5698;47.332;11.180;2022-10-16T06:35:22;9.50;99.90
11284;DHT22;5698;47.332;11.180;2022-10-16T06:37:49;9.50;99.90
11284;DHT22;5698;47.332;11.180;2022-10-16T06:40:16;9.50;99.90
11284;DHT22;5698;47.332;11.180;2022-10-16T06:42:43;9.50;99.90
11284;DHT22;5698;47.332;11.180;2022-10-16T06:45:10;9.40;99.90
11284;DHT22;5698;47.332;11.180;2022-10-16T06:47:38;9.40;99.90
11284;DHT22;5698;47.332;11.180;2022-10-16T06:50:07;9.50;99.90
11284;DHT22;5698;47.332;11.180;2022-10-16T06:52:34;9.80;99.90
11284;DHT22;5698;47.332;11.180;2022-10-16T06:55:01;10.10;99.90
11284;DHT22;5698;47.332;11.180;2022-10-16T06:57:29;10.40;99.90
11284;DHT22;5698;47.332;11.180;2022-10-16T06:59:56;10.80;99.90
11284;DHT22;5698;47.332;11.180;2022-10-16T07:02:23;11.20;99.90
11284;DHT22;5698;47.332;11.180;2022-10-16T07:04:50;11.70;99.90
11284;DHT22;5698;47.332;11.180;2022-10-16T07:07:18;12.10;99.90
11284;DHT22;5698;47.332;11.180;2022-10-16T07:09:45;12.60;99.90
11284;DHT22;5698;47.332;11.180;2022-10-16T07:12:12;13.20;99.90
11284;DHT22;5698;47.332;11.180;2022-10-16T07:14:39;13.60;99.90
11284;DHT22;5698;47.332;11.180;2022-10-16T07:17:06;13.90;99.90
11284;DHT22;5698;47.332;11.180;2022-10-16T07:19:33;14.20;99.90
11284;DHT22;5698;47.332;11.180;2022-10-16T07:22:00;14.60;99.90
11284;DHT22;5698;47.332;11.180;2022-10-16T07:24:28;15.20;99.90
11284;DHT22;5698;47.332;11.180;2022-10-16T07:26:55;15.80;99.90
11284;DHT22;5698;47.332;11.180;2022-10-16T07:29:22;16.20;99.90
11284;DHT22;5698;47.332;11.180;2022-10-16T07:31:49;16.20;99.90
11284;DHT22;5698;47.332;11.180;2022-10-16T07:34:18;16.30;99.90
11284;DHT22;5698;47.332;11.180;2022-10-16T07:36:48;16.30;99.90
11284;DHT22;5698;47.332;11.180;2022-10-16T07:39:15;16.50;99.90
11284;DHT22;5698;47.332;11.180;2022-10-16T07:41:43;16.60;99.90
11284;DHT22;5698;47.332;11.180;2022-10-16T07:44:10;16.60;99.90
11284;DHT22;5698;47.332;11.180;2022-10-16T07:46:37;16.60;99.90
11284;DHT22;5698;47.332;11.180;2022-10-16T07:49:04;16.60;99.90
11284;DHT22;5698;47.332;11.180;2022-10-16T07:51:31;16.80;99.90
11284;DHT22;5698;47.332;11.180;2022-10-16T07:53:58;16.80;99.90
11284;DHT22;5698;47.332;11.180;2022-10-16T07:56:25;16.70;99.90
11284;DHT22;5698;47.332;11.180;2022-10-16T07:58:53;16.40;99.90
11284;DHT22;5698;47.332;11.180;2022-10-16T08:01:21;16.10;99.90
11284;DHT22;5698;47.332;11.180;2022-10-16T08:03:51;16.10;99.90
11284;DHT22;5698;47.332;11.180;2022-10-16T08:06:20;15.80;99.90
11284;DHT22;5698;47.332;11.180;2022-10-16T08:08:47;15.80;99.90
11284;DHT22;5698;47.332;11.180;2022-10-16T08:11:14;15.70;99.90
11284;DHT22;5698;47.332;11.180;2022-10-16T08:13:41;15.60;99.90
11284;DHT22;5698;47.332;11.180;2022-10-16T08:16:10;15.40;99.90
11284;DHT22;5698;47.332;11.180;2022-10-16T08:18:38;15.40;99.90
11284;DHT22;5698;47.332;11.180;2022-10-16T08:21:07;15.30;99.90
11284;DHT22;5698;47.332;11.180;2022-10-16T08:23:34;15.20;99.90
11284;DHT22;5698;47.332;11.180;2022-10-16T08:26:05;15.10;99.90
11284;DHT22;5698;47.332;11.180;2022-10-16T08:28:33;14.90;99.90
11284;DHT22;5698;47.332;11.180;2022-10-16T08:31:07;15.00;99.90
11284;DHT22;5698;47.332;11.180;2022-10-16T08:33:37;15.20;99.90
11284;DHT22;5698;47.332;11.180;2022-10-16T08:36:05;15.60;99.90
11284;DHT22;5698;47.332;11.180;2022-10-16T08:38:32;15.90;99.90
11284;DHT22;5698;47.332;11.180;2022-10-16T08:41:17;16.20;99.90
11284;DHT22;5698;47.332;11.180;2022-10-16T08:44:20;16.60;99.90
11284;DHT22;5698;47.332;11.180;2022-10-16T08:46:53;17.00;99.90
11284;DHT22;5698;47.332;11.180;2022-10-16T08:49:24;17.20;99.90
11284;DHT22;5698;47.332;11.180;2022-10-16T08:51:52;17.40;99.90
11284;DHT22;5698;47.332;11.180;2022-10-16T08:54:28;17.70;99.90
11284;DHT22;5698;47.332;11.180;2022-10-16T08:56:56;17.60;99.90
11284;DHT22;5698;47.332;11.180;2022-10-16T08:59:23;17.80;99.90
11284;DHT22;5698;47.332;11.180;2022-10-16T09:01:52;18.10;99.90
11284;DHT22;5698;47.332;11.180;2022-10-16T09:04:54;18.50;99.90
11284;DHT22;5698;47.332;11.180;2022-10-16T09:07:27;18.70;99.90
11284;DHT22;5698;47.332;11.180;2022-10-16T09:10:05;18.80;99.90
11284;DHT22;5698;47.332;11.180;2022-10-16T09:12:38;18.70;99.90
11284;DHT22;5698;47.332;11.180;2022-10-16T09:15:17;18.60;99.90
11284;DHT22;5698;47.332;11.180;2022-10-16T09:17:54;18.70;99.90
11284;DHT22;5698;47.332;11.180;2022-10-16T09:20:40;18.90;99.90
11284;DHT22;5698;47.332;11.180;2022-10-16T09:23:16;19.00;99.90
11284;DHT22;5698;47.332;11.180;2022-10-16T09:25:46;19.20;99.20
11284;DHT22;5698;47.332;11.180;2022-10-16T09:28:14;19.40;99.50
11284;DHT22;5698;47.332;11.180;2022-10-16T09:30:42;19.50;99.00
11284;DHT22;5698;47.332;11.180;2022-10-16T09:33:10;19.90;98.90
11284;DHT22;5698;47.332;11.180;2022-10-16T09:35:41;20.30;98.40
11284;DHT22;5698;47.332;11.180;2022-10-16T09:38:09;20.60;96.80
11284;DHT22;5698;47.332;11.180;2022-10-16T09:40:47;20.70;97.20
11284;DHT22;5698;47.332;11.180;2022-10-16T09:43:21;20.30;96.70
11284;DHT22;5698;47.332;11.180;2022-10-16T09:45:59;20.20;96.30
11284;DHT22;5698;47.332;11.180;2022-10-16T09:48:30;20.20;96.60
11284;DHT22;5698;47.332;11.180;2022-10-16T09:51:02;20.30;96.50
11284;DHT22;5698;47.332;11.180;2022-10-16T09:53:40;20.60;95.90
11284;DHT22;5698;47.332;11.180;2022-10-16T09:56:10;21.00;95.60
11284;DHT22;5698;47.332;11.180;2022-10-16T09:58:42;21.40;94.60
11284;DHT22;5698;47.332;11.180;2022-10-16T10:01:13;21.70;93.80
11284;DHT22;5698;47.332;11.180;2022-10-16T10:03:42;21.90;93.60
11284;DHT22;5698;47.332;11.180;2022-10-16T10:06:22;21.80;93.40
11284;DHT22;5698;47.332;11.180;2022-10-16T10:11:44;21.90;93.70
11284;DHT22;5698;47.332;11.180;2022-10-16T10:14:23;22.10;92.70
11284;DHT22;5698;47.332;11.180;2022-10-16T10:16:52;22.30;93.10
11284;DHT22;5698;47.332;11.180;2022-10-16T10:19:21;22.50;91.80
11284;DHT22;5698;47.332;11.180;2022-10-16T10:21:50;22.70;92.10
11284;DHT22;5698;47.332;11.180;2022-10-16T10:24:19;23.10;91.30
11284;DHT22;5698;47.332;11.180;2022-10-16T10:26:51;23.70;89.10
11284;DHT22;5698;47.332;11.180;2022-10-16T10:29:39;24.10;89.40
11284;DHT22;5698;47.332;11.180;2022-10-16T10:32:19;24.60;89.90
11284;DHT22;5698;47.332;11.180;2022-10-16T10:34:58;25.00;83.90
11284;DHT22;5698;47.332;11.180;2022-10-16T10:37:41;24.80;83.40
11284;DHT22;5698;47.332;11.180;2022-10-16T10:40:20;24.80;84.10
11284;DHT22;5698;47.332;11.180;2022-10-16T10:42:54;24.80;83.20
11284;DHT22;5698;47.332;11.180;2022-10-16T10:45:27;25.10;82.40
11284;DHT22;5698;47.332;11.180;2022-10-16T10:48:12;25.50;82.60
11284;DHT22;5698;47.332;11.180;2022-10-16T10:50:44;26.10;80.20
11284;DHT22;5698;47.332;11.180;2022-10-16T10:53:25;26.40;75.70
11284;DHT22;5698;47.332;11.180;2022-10-16T10:56:00;26.70;77.50
11284;DHT22;5698;47.332;11.180;2022-10-16T10:58:57;27.10;76.30
11284;DHT22;5698;47.332;11.180;2022-10-16T11:01:33;27.10;69.60
11284;DHT22;5698;47.332;11.180;2022-10-16T11:04:27;26.90;71.30
11284;DHT22;5698;47.332;11.180;2022-10-16T11:06:59;26.50;65.90
11284;DHT22;5698;47.332;11.180;2022-10-16T11:09:34;26.30;69.30
11284;DHT22;5698;47.332;11.180;2022-10-16T11:12:07;26.30;69.10
11284;DHT22;5698;47.332;11.180;2022-10-16T11:14:38;26.50;68.90
11284;DHT22;5698;47.332;11.180;2022-10-16T11:17:11;27.10;66.50
11284;DHT22;5698;47.332;11.180;2022-10-16T11:19:43;27.70;65.10
11284;DHT22;5698;47.332;11.180;2022-10-16T11:22:16;28.30;63.80
11284;DHT22;5698;47.332;11.180;2022-10-16T11:24:50;28.60;58.60
11284;DHT22;5698;47.332;11.180;2022-10-16T11:27:23;28.80;61.80
11284;DHT22;5698;47.332;11.180;2022-10-16T11:29:57;28.50;59.40
11284;DHT22;5698;47.332;11.180;2022-10-16T11:32:30;28.70;59.70
11284;DHT22;5698;47.332;11.180;2022-10-16T11:35:04;29.00;60.60
11284;DHT22;5698;47.332;11.180;2022-10-16T11:37:36;29.40;59.80
11284;DHT22;5698;47.332;11.180;2022-10-16T11:40:19;29.60;59.90
11284;DHT22;5698;47.332;11.180;2022-10-16T11:42:51;29.80;59.30
11284;DHT22;5698;47.332;11.180;2022-10-16T11:45:26;29.90;57.70
11284;DHT22;5698;47.332;11.180;2022-10-16T11:47:58;30.10;56.40
11284;DHT22;5698;47.332;11.180;2022-10-16T11:50:31;30.30;56.90
11284;DHT22;5698;47.332;11.180;2022-10-16T11:53:04;30.30;55.30
11284;DHT22;5698;47.332;11.180;2022-10-16T11:55:39;30.20;55.70
11284;DHT22;5698;47.332;11.180;2022-10-16T11:58:13;30.30;54.00
11284;DHT22;5698;47.332;11.180;2022-10-16T12:00:46;30.40;54.80
11284;DHT22;5698;47.332;11.180;2022-10-16T12:03:19;30.60;54.70
11284;DHT22;5698;47.332;11.180;2022-10-16T12:05:58;30.80;56.30
11284;DHT22;5698;47.332;11.180;2022-10-16T12:08:29;31.00;54.50
11284;DHT22;5698;47.332;11.180;2022-10-16T12:11:07;30.80;55.30
11284;DHT22;5698;47.332;11.180;2022-10-16T12:13:36;30.60;55.60
11284;DHT22;5698;47.332;11.180;2022-10-16T12:16:20;30.30;55.30
11284;DHT22;5698;47.332;11.180;2022-10-16T12:18:48;30.10;54.30
11284;DHT22;5698;47.332;11.180;2022-10-16T12:21:17;29.40;56.10
11284;DHT22;5698;47.332;11.180;2022-10-16T12:23:49;29.30;55.00
11284;DHT22;5698;47.332;11.180;2022-10-16T12:26:26;29.20;56.40
11284;DHT22;5698;47.332;11.180;2022-10-16T12:28:53;29.00;55.80
11284;DHT22;5698;47.332;11.180;2022-10-16T12:31:21;28.30;57.00
11284;DHT22;5698;47.332;11.180;2022-10-16T12:33:58;27.30;59.60
11284;DHT22;5698;47.332;11.180;2022-10-16T12:36:28;27.20;60.60
11284;DHT22;5698;47.332;11.180;2022-10-16T12:38:56;27.40;59.10
11284;DHT22;5698;47.332;11.180;2022-10-16T12:41:29;27.40;56.90
11284;DHT22;5698;47.332;11.180;2022-10-16T12:43:57;27.50;62.00
11284;DHT22;5698;47.332;11.180;2022-10-16T12:46:38;27.90;59.60
11284;DHT22;5698;47.332;11.180;2022-10-16T12:49:19;28.30;61.90
11284;DHT22;5698;47.332;11.180;2022-10-16T12:51:47;28.60;61.00
11284;DHT22;5698;47.332;11.180;2022-10-16T12:54:15;28.60;60.00
11284;DHT22;5698;47.332;11.180;2022-10-16T12:56:52;29.00;60.40
11284;DHT22;5698;47.332;11.180;2022-10-16T12:59:32;28.80;58.40
11284;DHT22;5698;47.332;11.180;2022-10-16T13:02:24;28.40;60.40
11284;DHT22;5698;47.332;11.180;2022-10-16T13:05:11;27.90;59.10
11284;DHT22;5698;47.332;11.180;2022-10-16T13:07:53;27.40;62.70
11284;DHT22;5698;47.332;11.180;2022-10-16T13:10:27;27.50;63.80
11284;DHT22;5698;47.332;11.180;2022-10-16T13:13:21;27.60;62.20
11284;DHT22;5698;47.332;11.180;2022-10-16T13:15:59;27.40;63.00
11284;DHT22;5698;47.332;11.180;2022-10-16T13:18:33;27.40;63.30
11284;DHT22;5698;47.332;11.180;2022-10-16T13:21:16;27.10;62.40
11284;DHT22;5698;47.332;11.180;2022-10-16T13:23:51;26.80;62.90
11284;DHT22;5698;47.332;11.180;2022-10-16T13:26:28;26.30;64.10
11284;DHT22;5698;47.332;11.180;2022-10-16T13:29:00;26.00;65.10
11284;DHT22;5698;47.332;11.180;2022-10-16T13:31:28;25.50;66.00
11284;DHT22;5698;47.332;11.180;2022-10-16T13:33:58;25.30;68.40
11284;DHT22;5698;47.332;11.180;2022-10-16T13:36:28;25.00;69.40
11284;DHT22;5698;47.332;11.180;2022-10-16T13:39:11;24.50;71.10
11284;DHT22;5698;47.332;11.180;2022-10-16T13:41:39;23.80;73.50
11284;DHT22;5698;47.332;11.180;2022-10-16T13:44:14;23.40;74.10
11284;DHT22;5698;47.332;11.180;2022-10-16T13:46:42;23.10;76.20
11284;DHT22;5698;47.332;11.180;2022-10-16T13:49:14;22.90;77.90
11284;DHT22;5698;47.332;11.180;2022-10-16T13:51:41;22.60;80.80
11284;DHT22;5698;47.332;11.180;2022-10-16T13:54:20;22.30;80.20
11284;DHT22;5698;47.332;11.180;2022-10-16T13:56:47;22.00;80.30
11284;DHT22;5698;47.332;11.180;2022-10-16T13:59:25;21.70;82.50
11284;DHT22;5698;47.332;11.180;2022-10-16T14:01:55;21.00;80.90
11284;DHT22;5698;47.332;11.180;2022-10-16T14:04:24;20.60;81.50
11284;DHT22;5698;47.332;11.180;2022-10-16T14:06:52;20.40;80.00
11284;DHT22;5698;47.332;11.180;2022-10-16T14:09:23;20.20;79.40
11284;DHT22;5698;47.332;11.180;2022-10-16T14:11:54;19.80;79.50
11284;DHT22;5698;47.332;11.180;2022-10-16T14:14:24;19.70;80.30
11284;DHT22;5698;47.332;11.180;2022-10-16T14:16:51;19.40;81.40
11284;DHT22;5698;47.332;11.180;2022-10-16T14:19:21;19.20;81.80
11284;DHT22;5698;47.332;11.180;2022-10-16T14:21:50;18.90;82.80
11284;DHT22;5698;47.332;11.180;2022-10-16T14:24:25;18.70;83.70
11284;DHT22;5698;47.332;11.180;2022-10-16T14:26:53;18.70;86.20
11284;DHT22;5698;47.332;11.180;2022-10-16T14:29:24;18.70;85.90
11284;DHT22;5698;47.332;11.180;2022-10-16T14:31:55;18.40;87.80
11284;DHT22;5698;47.332;11.180;2022-10-16T14:34:31;18.30;87.50
11284;DHT22;5698;47.332;11.180;2022-10-16T14:37:00;18.30;90.60
11284;DHT22;5698;47.332;11.180;2022-10-16T14:39:33;18.30;91.10
11284;DHT22;5698;47.332;11.180;2022-10-16T14:42:00;18.30;91.20
11284;DHT22;5698;47.332;11.180;2022-10-16T14:44:32;18.10;91.50
11284;DHT22;5698;47.332;11.180;2022-10-16T14:47:08;18.00;91.80
11284;DHT22;5698;47.332;11.180;2022-10-16T14:49:36;17.80;93.00
11284;DHT22;5698;47.332;11.180;2022-10-16T14:52:08;17.70;93.00
11284;DHT22;5698;47.332;11.180;2022-10-16T14:54:35;17.60;93.40
11284;DHT22;5698;47.332;11.180;2022-10-16T14:57:02;17.60;93.80
11284;DHT22;5698;47.332;11.180;2022-10-16T14:59:35;17.50;93.60
11284;DHT22;5698;47.332;11.180;2022-10-16T15:02:16;17.40;94.30
11284;DHT22;5698;47.332;11.180;2022-10-16T15:04:44;17.30;95.40
11284;DHT22;5698;47.332;11.180;2022-10-16T15:07:12;17.30;95.60
11284;DHT22;5698;47.332;11.180;2022-10-16T15:09:39;17.30;95.90
11284;DHT22;5698;47.332;11.180;2022-10-16T15:12:06;17.10;96.00
11284;DHT22;5698;47.332;11.180;2022-10-16T15:14:34;17.20;96.90
11284;DHT22;5698;47.332;11.180;2022-10-16T15:17:01;17.10;97.10
11284;DHT22;5698;47.332;11.180;2022-10-16T15:19:28;16.90;97.80
11284;DHT22;5698;47.332;11.180;2022-10-16T15:21:55;16.80;98.10
11284;DHT22;5698;47.332;11.180;2022-10-16T15:24:22;16.70;98.70
11284;DHT22;5698;47.332;11.180;2022-10-16T15:26:49;16.50;99.40
11284;DHT22;5698;47.332;11.180;2022-10-16T15:29:16;16.30;99.80
11284;DHT22;5698;47.332;11.180;2022-10-16T15:31:45;16.20;99.90
11284;DHT22;5698;47.332;11.180;2022-10-16T15:34:13;16.00;99.90
11284;DHT22;5698;47.332;11.180;2022-10-16T15:36:40;15.90;99.90
11284;DHT22;5698;47.332;11.180;2022-10-16T15:39:13;15.80;99.90
11284;DHT22;5698;47.332;11.180;2022-10-16T15:41:40;15.80;99.90
11284;DHT22;5698;47.332;11.180;2022-10-16T15:44:08;15.80;99.90
11284;DHT22;5698;47.332;11.180;2022-10-16T15:46:35;15.70;99.90
11284;DHT22;5698;47.332;11.180;2022-10-16T15:49:04;15.60;99.90
11284;DHT22;5698;47.332;11.180;2022-10-16T15:51:31;15.50;99.90
11284;DHT22;5698;47.332;11.180;2022-10-16T15:53:59;15.30;99.90
11284;DHT22;5698;47.332;11.180;2022-10-16T15:56:28;15.20;99.90
11284;DHT22;5698;47.332;11.180;2022-10-16T15:58:58;15.10;99.90